sensor_id;sensor_type;location;lat;lon;timestamp;pressure;altitude;pressure_sealevel;temperature;humidity
30081;BME280;16902;50.816;12.828;2023-06-10T00:01:19;97657.19;;;12.04;100.00
30081;BME280;16902;50.816;12.828;2023-06-10T00:06:21;97655.16;;;12.00;100.00
30081;BME280;16902;50.816;12.828;2023-06-10T00:11:25;97630.63;;;11.94;100.00
30081;BME280;16902;50.816;12.828;2023-06-10T00:16:27;97632.13;;;12.10;100.00
30081;BME280;16902;50.816;12.828;2023-06-10T00:21:34;97622.63;;;12.02;100.00
30081;BME280;16902;50.816;12.828;2023-06-10T00:26:41;97614.78;;;11.96;100.00
30081;BME280;16902;50.816;12.828;2023-06-10T00:31:44;97616.22;;;11.77;100.00
30081;BME280;16902;50.816;12.828;2023-06-10T00:36:46;97615.63;;;11.75;100.00
30081;BME280;16902;50.816;12.828;2023-06-10T00:41:48;97625.63;;;11.71;100.00
30081;BME280;16902;50.816;12.828;2023-06-10T00:46:50;97642.34;;;11.55;100.00
30081;BME280;16902;50.816;12.828;2023-06-10T00:51:53;97640.31;;;11.51;100.00
30081;BME280;16902;50.816;12.828;2023-06-10T00:56:55;97644.69;;;11.50;100.00
30081;BME280;16902;50.816;12.828;2023-06-10T01:01:58;97643.53;;;11.53;100.00
30081;BME280;16902;50.816;12.828;2023-06-10T01:07:09;97635.34;;;11.56;100.00
30081;BME280;16902;50.816;12.828;2023-06-10T01:12:19;97630.13;;;11.56;100.00
30081;BME280;16902;50.816;12.828;2023-06-10T01:17:28;97635.72;;;11.53;100.00
30081;BME280;16902;50.816;12.828;2023-06-10T01:22:32;97637.28;;;11.47;100.00
30081;BME280;16902;50.816;12.828;2023-06-10T01:27:40;97632.63;;;11.43;100.00
30081;BME280;16902;50.816;12.828;2023-06-10T01:32:50;97638.59;;;11.37;100.00
30081;BME280;16902;50.816;12.828;2023-06-10T01:37:54;97639.31;;;11.30;100.00
30081;BME280;16902;50.816;12.828;2023-06-10T01:42:57;97634.88;;;11.24;100.00
30081;BME280;16902;50.816;12.828;2023-06-10T01:47:58;97645.34;;;11.10;100.00
30081;BME280;16902;50.816;12.828;2023-06-10T01:53:01;97652.72;;;11.06;100.00
30081;BME280;16902;50.816;12.828;2023-06-10T01:58:02;97659.84;;;10.97;100.00
30081;BME280;16902;50.816;12.828;2023-06-10T02:03:04;97673.06;;;10.96;100.00
30081;BME280;16902;50.816;12.828;2023-06-10T02:08:06;97676.91;;;11.00;100.00
30081;BME280;16902;50.816;12.828;2023-06-10T02:13:08;97687.59;;;11.05;100.00
30081;BME280;16902;50.816;12.828;2023-06-10T02:18:09;97695.84;;;11.09;100.00
30081;BME280;16902;50.816;12.828;2023-06-10T02:23:13;97692.84;;;11.12;100.00
30081;BME280;16902;50.816;12.828;2023-06-10T02:28:15;97701.31;;;11.14;100.00
30081;BME280;16902;50.816;12.828;2023-06-10T02:33:16;97700.50;;;11.13;100.00
30081;BME280;16902;50.816;12.828;2023-06-10T02:38:19;97710.38;;;11.18;100.00
30081;BME280;16902;50.816;12.828;2023-06-10T02:43:21;97706.78;;;11.19;100.00
30081;BME280;16902;50.816;12.828;2023-06-10T02:48:24;97711.34;;;11.17;100.00
30081;BME280;16902;50.816;12.828;2023-06-10T02:53:26;97708.13;;;11.15;100.00
30081;BME280;16902;50.816;12.828;2023-06-10T02:58:35;97706.97;;;11.17;100.00
30081;BME280;16902;50.816;12.828;2023-06-10T03:03:39;97699.72;;;11.34;100.00
30081;BME280;16902;50.816;12.828;2023-06-10T03:08:46;97698.28;;;11.53;100.00
30081;BME280;16902;50.816;12.828;2023-06-10T03:13:52;97702.31;;;11.77;100.00
30081;BME280;16902;50.816;12.828;2023-06-10T03:18:56;97700.69;;;11.97;100.00
30081;BME280;16902;50.816;12.828;2023-06-10T03:23:58;97708.63;;;12.17;100.00
30081;BME280;16902;50.816;12.828;2023-06-10T03:29:02;97719.78;;;12.32;100.00
30081;BME280;16902;50.816;12.828;2023-06-10T03:34:05;97722.91;;;12.49;100.00
30081;BME280;16902;50.816;12.828;2023-06-10T03:39:07;97733.44;;;12.63;100.00
30081;BME280;16902;50.816;12.828;2023-06-10T03:44:09;97726.91;;;12.86;100.00
30081;BME280;16902;50.816;12.828;2023-06-10T03:49:10;97728.81;;;13.19;100.00
30081;BME280;16902;50.816;12.828;2023-06-10T03:54:13;97740.56;;;13.43;100.00
30081;BME280;16902;50.816;12.828;2023-06-10T03:59:15;97736.97;;;13.57;100.00
30081;BME280;16902;50.816;12.828;2023-06-10T04:04:17;97747.25;;;13.66;100.00
30081;BME280;16902;50.816;12.828;2023-06-10T04:09:20;97754.72;;;13.69;100.00
30081;BME280;16902;50.816;12.828;2023-06-10T04:14:21;97745.25;;;13.68;100.00
30081;BME280;16902;50.816;12.828;2023-06-10T04:19:23;97739.03;;;13.69;100.00
30081;BME280;16902;50.816;12.828;2023-06-10T04:24:26;97739.41;;;13.72;100.00
30081;BME280;16902;50.816;12.828;2023-06-10T04:29:27;97741.25;;;13.78;100.00
30081;BME280;16902;50.816;12.828;2023-06-10T04:34:30;97734.19;;;13.85;100.00
30081;BME280;16902;50.816;12.828;2023-06-10T04:39:32;97737.63;;;13.93;100.00
30081;BME280;16902;50.816;12.828;2023-06-10T04:44:36;97736.00;;;13.98;100.00
30081;BME280;16902;50.816;12.828;2023-06-10T04:49:38;97735.78;;;14.06;100.00
30081;BME280;16902;50.816;12.828;2023-06-10T04:54:40;97732.75;;;14.16;100.00
30081;BME280;16902;50.816;12.828;2023-06-10T04:59:42;97738.22;;;14.28;100.00
30081;BME280;16902;50.816;12.828;2023-06-10T05:04:43;97740.59;;;14.43;100.00
30081;BME280;16902;50.816;12.828;2023-06-10T05:09:45;97735.97;;;14.58;100.00
30081;BME280;16902;50.816;12.828;2023-06-10T05:14:47;97748.59;;;14.74;100.00
30081;BME280;16902;50.816;12.828;2023-06-10T05:19:48;97754.16;;;15.04;100.00
30081;BME280;16902;50.816;12.828;2023-06-10T05:24:50;97758.25;;;15.38;100.00
30081;BME280;16902;50.816;12.828;2023-06-10T05:29:52;97760.34;;;15.55;100.00
30081;BME280;16902;50.816;12.828;2023-06-10T05:34:54;97760.09;;;15.70;100.00
30081;BME280;16902;50.816;12.828;2023-06-10T05:39:56;97757.38;;;15.83;100.00
30081;BME280;16902;50.816;12.828;2023-06-10T05:44:57;97754.44;;;15.98;100.00
30081;BME280;16902;50.816;12.828;2023-06-10T05:49:59;97755.56;;;16.08;100.00
30081;BME280;16902;50.816;12.828;2023-06-10T05:55:02;97757.84;;;16.23;100.00
30081;BME280;16902;50.816;12.828;2023-06-10T06:00:05;97753.03;;;16.45;100.00
30081;BME280;16902;50.816;12.828;2023-06-10T06:05:12;97757.03;;;16.66;100.00
30081;BME280;16902;50.816;12.828;2023-06-10T06:10:17;97756.84;;;16.86;100.00
30081;BME280;16902;50.816;12.828;2023-06-10T06:15:19;97775.13;;;16.99;100.00
30081;BME280;16902;50.816;12.828;2023-06-10T06:20:21;97773.00;;;17.08;100.00
30081;BME280;16902;50.816;12.828;2023-06-10T06:25:23;97777.50;;;17.19;100.00
30081;BME280;16902;50.816;12.828;2023-06-10T06:30:25;97780.78;;;17.33;100.00
30081;BME280;16902;50.816;12.828;2023-06-10T06:35:27;97786.88;;;17.45;100.00
30081;BME280;16902;50.816;12.828;2023-06-10T06:40:29;97788.44;;;17.64;100.00
30081;BME280;16902;50.816;12.828;2023-06-10T06:45:31;97791.81;;;17.71;100.00
30081;BME280;16902;50.816;12.828;2023-06-10T06:50:35;97798.66;;;17.91;100.00
30081;BME280;16902;50.816;12.828;2023-06-10T06:55:36;97795.47;;;18.12;100.00
30081;BME280;16902;50.816;12.828;2023-06-10T07:00:38;97811.66;;;18.28;100.00
30081;BME280;16902;50.816;12.828;2023-06-10T07:05:40;97806.88;;;18.48;100.00
30081;BME280;16902;50.816;12.828;2023-06-10T07:10:42;97811.19;;;18.66;100.00
30081;BME280;16902;50.816;12.828;2023-06-10T07:15:43;97805.72;;;18.79;100.00
30081;BME280;16902;50.816;12.828;2023-06-10T07:20:45;97813.84;;;19.01;100.00
30081;BME280;16902;50.816;12.828;2023-06-10T07:25:47;97810.69;;;19.27;100.00
30081;BME280;16902;50.816;12.828;2023-06-10T07:30:48;97810.25;;;19.47;100.00
30081;BME280;16902;50.816;12.828;2023-06-10T07:35:50;97817.56;;;19.69;100.00
30081;BME280;16902;50.816;12.828;2023-06-10T07:40:52;97819.09;;;19.82;100.00
30081;BME280;16902;50.816;12.828;2023-06-10T07:45:54;97818.28;;;20.26;100.00
30081;BME280;16902;50.816;12.828;2023-06-10T07:50:56;97814.13;;;20.64;100.00
30081;BME280;16902;50.816;12.828;2023-06-10T07:55:58;97814.19;;;21.08;100.00
30081;BME280;16902;50.816;12.828;2023-06-10T08:00:59;97818.34;;;21.43;100.00
30081;BME280;16902;50.816;12.828;2023-06-10T08:06:01;97814.75;;;21.32;100.00
30081;BME280;16902;50.816;12.828;2023-06-10T08:11:03;97813.69;;;21.55;100.00
30081;BME280;16902;50.816;12.828;2023-06-10T08:16:05;97818.41;;;21.75;100.00
30081;BME280;16902;50.816;12.828;2023-06-10T08:21:07;97806.44;;;21.45;100.00
30081;BME280;16902;50.816;12.828;2023-06-10T08:26:08;97813.66;;;22.09;100.00
30081;BME280;16902;50.816;12.828;2023-06-10T08:31:10;97821.75;;;22.56;100.00
30081;BME280;16902;50.816;12.828;2023-06-10T08:36:12;97835.31;;;21.69;100.00
30081;BME280;16902;50.816;12.828;2023-06-10T08:41:17;97835.84;;;21.44;100.00
30081;BME280;16902;50.816;12.828;2023-06-10T08:46:20;97843.88;;;21.76;100.00
30081;BME280;16902;50.816;12.828;2023-06-10T08:51:22;97837.75;;;22.02;100.00
30081;BME280;16902;50.816;12.828;2023-06-10T08:56:27;97833.38;;;22.13;100.00
30081;BME280;16902;50.816;12.828;2023-06-10T09:01:31;97845.34;;;22.16;100.00
30081;BME280;16902;50.816;12.828;2023-06-10T09:06:34;97851.28;;;22.65;100.00
30081;BME280;16902;50.816;12.828;2023-06-10T09:11:38;97838.09;;;23.23;100.00
30081;BME280;16902;50.816;12.828;2023-06-10T09:16:40;97842.75;;;22.58;100.00
30081;BME280;16902;50.816;12.828;2023-06-10T09:21:43;97841.16;;;22.25;100.00
30081;BME280;16902;50.816;12.828;2023-06-10T09:26:45;97838.94;;;23.33;100.00
30081;BME280;16902;50.816;12.828;2023-06-10T09:31:47;97848.09;;;23.68;100.00
30081;BME280;16902;50.816;12.828;2023-06-10T09:36:49;97849.50;;;23.18;100.00
30081;BME280;16902;50.816;12.828;2023-06-10T09:41:50;97858.44;;;22.65;100.00
30081;BME280;16902;50.816;12.828;2023-06-10T09:46:52;97854.88;;;23.33;100.00
30081;BME280;16902;50.816;12.828;2023-06-10T09:51:56;97858.56;;;24.05;100.00
30081;BME280;16902;50.816;12.828;2023-06-10T09:56:57;97860.19;;;23.39;100.00
30081;BME280;16902;50.816;12.828;2023-06-10T10:02:01;97871.41;;;22.93;100.00
30081;BME280;16902;50.816;12.828;2023-06-10T10:07:03;97865.06;;;22.62;100.00
30081;BME280;16902;50.816;12.828;2023-06-10T10:12:14;97867.59;;;22.47;100.00
30081;BME280;16902;50.816;12.828;2023-06-10T10:17:17;97866.19;;;22.71;100.00
30081;BME280;16902;50.816;12.828;2023-06-10T10:22:26;97861.41;;;23.78;100.00
30081;BME280;16902;50.816;12.828;2023-06-10T10:27:52;97878.53;;;24.23;100.00
30081;BME280;16902;50.816;12.828;2023-06-10T10:34:16;97871.94;;;23.48;100.00
30081;BME280;16902;50.816;12.828;2023-06-10T10:38:47;97877.94;;;22.80;100.00
30081;BME280;16902;50.816;12.828;2023-06-10T10:43:53;97872.25;;;23.04;100.00
30081;BME280;16902;50.816;12.828;2023-06-10T10:48:56;97868.28;;;23.64;100.00
30081;BME280;16902;50.816;12.828;2023-06-10T10:54:14;97857.78;;;24.61;100.00
30081;BME280;16902;50.816;12.828;2023-06-10T10:59:16;97860.00;;;25.44;100.00
30081;BME280;16902;50.816;12.828;2023-06-10T11:04:21;97859.63;;;24.25;100.00
30081;BME280;16902;50.816;12.828;2023-06-10T11:09:28;97863.81;;;23.75;100.00
30081;BME280;16902;50.816;12.828;2023-06-10T11:14:33;97857.19;;;23.93;100.00
30081;BME280;16902;50.816;12.828;2023-06-10T11:19:37;97857.84;;;25.46;100.00
30081;BME280;16902;50.816;12.828;2023-06-10T11:24:40;97859.34;;;24.93;100.00
30081;BME280;16902;50.816;12.828;2023-06-10T11:29:58;97847.63;;;24.88;100.00
30081;BME280;16902;50.816;12.828;2023-06-10T11:35:05;97844.25;;;24.52;100.00
30081;BME280;16902;50.816;12.828;2023-06-10T11:40:07;97848.19;;;24.19;100.00
30081;BME280;16902;50.816;12.828;2023-06-10T11:45:15;97831.88;;;26.51;100.00
30081;BME280;16902;50.816;12.828;2023-06-10T11:50:36;97838.19;;;27.37;100.00
30081;BME280;16902;50.816;12.828;2023-06-10T11:55:48;97831.75;;;29.98;100.00
30081;BME280;16902;50.816;12.828;2023-06-10T12:05:59;97823.75;;;32.40;100.00
30081;BME280;16902;50.816;12.828;2023-06-10T12:11:01;97815.34;;;31.89;100.00
30081;BME280;16902;50.816;12.828;2023-06-10T12:16:07;97805.66;;;30.12;100.00
30081;BME280;16902;50.816;12.828;2023-06-10T12:21:20;97805.00;;;31.39;100.00
30081;BME280;16902;50.816;12.828;2023-06-10T12:26:36;97792.41;;;36.16;77.39
30081;BME280;16902;50.816;12.828;2023-06-10T12:31:58;97784.66;;;33.73;72.85
30081;BME280;16902;50.816;12.828;2023-06-10T12:37:01;97775.88;;;31.76;81.80
30081;BME280;16902;50.816;12.828;2023-06-10T12:42:03;97779.22;;;31.56;96.64
30081;BME280;16902;50.816;12.828;2023-06-10T12:47:10;97772.25;;;32.71;64.41
30081;BME280;16902;50.816;12.828;2023-06-10T12:52:13;97777.50;;;31.68;77.38
30081;BME280;16902;50.816;12.828;2023-06-10T12:57:15;97784.44;;;32.68;76.74
30081;BME280;16902;50.816;12.828;2023-06-10T13:02:19;97791.69;;;30.77;93.24
30081;BME280;16902;50.816;12.828;2023-06-10T13:07:21;97792.75;;;28.59;100.00
30081;BME280;16902;50.816;12.828;2023-06-10T13:12:25;97797.56;;;32.32;73.16
30081;BME280;16902;50.816;12.828;2023-06-10T13:17:47;97797.91;;;32.13;79.09
30081;BME280;16902;50.816;12.828;2023-06-10T13:22:52;97802.47;;;28.55;100.00
30081;BME280;16902;50.816;12.828;2023-06-10T13:27:54;97797.44;;;30.93;88.30
30081;BME280;16902;50.816;12.828;2023-06-10T13:32:56;97783.97;;;29.13;83.93
30081;BME280;16902;50.816;12.828;2023-06-10T13:37:58;97779.88;;;28.88;86.93
30081;BME280;16902;50.816;12.828;2023-06-10T13:43:00;97774.94;;;30.80;67.08
30081;BME280;16902;50.816;12.828;2023-06-10T13:48:02;97766.97;;;29.18;89.23
30081;BME280;16902;50.816;12.828;2023-06-10T13:53:05;97767.94;;;26.64;100.00
30081;BME280;16902;50.816;12.828;2023-06-10T13:58:07;97751.38;;;27.10;100.00
30081;BME280;16902;50.816;12.828;2023-06-10T14:03:09;97756.31;;;27.79;100.00
30081;BME280;16902;50.816;12.828;2023-06-10T14:08:11;97762.28;;;28.55;73.39
30081;BME280;16902;50.816;12.828;2023-06-10T14:13:13;97765.47;;;32.65;60.88
30081;BME280;16902;50.816;12.828;2023-06-10T14:18:14;97755.81;;;33.86;46.17
30081;BME280;16902;50.816;12.828;2023-06-10T14:23:16;97760.69;;;32.62;44.32
30081;BME280;16902;50.816;12.828;2023-06-10T14:28:18;97766.47;;;32.34;43.39
30081;BME280;16902;50.816;12.828;2023-06-10T14:33:20;97752.06;;;32.77;42.59
30081;BME280;16902;50.816;12.828;2023-06-10T14:38:22;97753.19;;;31.16;46.56
30081;BME280;16902;50.816;12.828;2023-06-10T14:43:23;97765.94;;;31.94;44.48
30081;BME280;16902;50.816;12.828;2023-06-10T14:48:25;97763.47;;;33.42;44.93
30081;BME280;16902;50.816;12.828;2023-06-10T14:53:27;97770.75;;;34.04;41.38
30081;BME280;16902;50.816;12.828;2023-06-10T14:58:28;97766.59;;;33.23;40.44
30081;BME280;16902;50.816;12.828;2023-06-10T15:03:30;97760.66;;;33.92;42.29
30081;BME280;16902;50.816;12.828;2023-06-10T15:08:32;97757.84;;;34.22;38.66
30081;BME280;16902;50.816;12.828;2023-06-10T15:13:33;97758.00;;;33.50;39.65
30081;BME280;16902;50.816;12.828;2023-06-10T15:18:35;97752.47;;;31.94;42.25
30081;BME280;16902;50.816;12.828;2023-06-10T15:23:37;97751.03;;;32.61;42.39
30081;BME280;16902;50.816;12.828;2023-06-10T15:28:39;97748.28;;;33.08;43.61
30081;BME280;16902;50.816;12.828;2023-06-10T15:33:40;97758.56;;;32.46;47.48
30081;BME280;16902;50.816;12.828;2023-06-10T15:38:45;97746.38;;;33.08;44.81
30081;BME280;16902;50.816;12.828;2023-06-10T15:43:47;97746.50;;;33.12;45.50
30081;BME280;16902;50.816;12.828;2023-06-10T15:48:49;97745.91;;;33.57;44.75
30081;BME280;16902;50.816;12.828;2023-06-10T15:53:51;97751.28;;;32.30;47.07
30081;BME280;16902;50.816;12.828;2023-06-10T15:58:52;97746.84;;;30.95;50.19
30081;BME280;16902;50.816;12.828;2023-06-10T16:03:54;97756.34;;;30.70;51.27
30081;BME280;16902;50.816;12.828;2023-06-10T16:08:56;97742.28;;;31.13;46.95
30081;BME280;16902;50.816;12.828;2023-06-10T16:13:58;97742.38;;;29.02;56.63
30081;BME280;16902;50.816;12.828;2023-06-10T16:19:00;97754.78;;;27.54;63.14
30081;BME280;16902;50.816;12.828;2023-06-10T16:24:01;97759.09;;;26.35;74.75
30081;BME280;16902;50.816;12.828;2023-06-10T16:29:03;97768.88;;;26.15;69.04
30081;BME280;16902;50.816;12.828;2023-06-10T16:34:05;97768.53;;;25.54;77.25
30081;BME280;16902;50.816;12.828;2023-06-10T16:39:07;97757.75;;;25.25;75.43
30081;BME280;16902;50.816;12.828;2023-06-10T16:44:08;97763.97;;;25.05;82.67
30081;BME280;16902;50.816;12.828;2023-06-10T16:49:10;97766.34;;;25.06;85.32
30081;BME280;16902;50.816;12.828;2023-06-10T16:54:12;97775.03;;;24.52;96.04
30081;BME280;16902;50.816;12.828;2023-06-10T16:59:14;97776.09;;;24.26;91.00
30081;BME280;16902;50.816;12.828;2023-06-10T17:04:15;97790.19;;;24.11;98.50
30081;BME280;16902;50.816;12.828;2023-06-10T17:09:17;97790.19;;;23.85;91.84
30081;BME280;16902;50.816;12.828;2023-06-10T17:14:19;97793.09;;;23.74;98.59
30081;BME280;16902;50.816;12.828;2023-06-10T17:19:21;97798.88;;;23.55;100.00
30081;BME280;16902;50.816;12.828;2023-06-10T17:24:23;97794.59;;;23.49;100.00
30081;BME280;16902;50.816;12.828;2023-06-10T17:29:25;97797.50;;;23.38;100.00
30081;BME280;16902;50.816;12.828;2023-06-10T17:34:26;97792.94;;;23.23;100.00
30081;BME280;16902;50.816;12.828;2023-06-10T17:39:28;97797.13;;;23.03;100.00
30081;BME280;16902;50.816;12.828;2023-06-10T17:44:30;97796.78;;;22.90;100.00
30081;BME280;16902;50.816;12.828;2023-06-10T17:49:32;97797.53;;;22.85;100.00
30081;BME280;16902;50.816;12.828;2023-06-10T17:54:35;97802.47;;;22.71;100.00
30081;BME280;16902;50.816;12.828;2023-06-10T17:59:36;97806.94;;;22.61;100.00
30081;BME280;16902;50.816;12.828;2023-06-10T18:04:38;97811.28;;;22.35;100.00
30081;BME280;16902;50.816;12.828;2023-06-10T18:09:40;97810.44;;;22.29;100.00
30081;BME280;16902;50.816;12.828;2023-06-10T18:14:41;97802.59;;;22.12;100.00
30081;BME280;16902;50.816;12.828;2023-06-10T18:19:43;97804.56;;;22.00;100.00
30081;BME280;16902;50.816;12.828;2023-06-10T18:24:45;97815.13;;;21.95;100.00
30081;BME280;16902;50.816;12.828;2023-06-10T18:29:46;97818.69;;;21.78;100.00
30081;BME280;16902;50.816;12.828;2023-06-10T18:34:48;97831.50;;;21.60;100.00
30081;BME280;16902;50.816;12.828;2023-06-10T18:39:52;97839.34;;;21.49;100.00
30081;BME280;16902;50.816;12.828;2023-06-10T18:44:54;97840.22;;;21.33;100.00
30081;BME280;16902;50.816;12.828;2023-06-10T18:49:55;97849.88;;;21.05;100.00
30081;BME280;16902;50.816;12.828;2023-06-10T18:54:57;97847.91;;;20.79;100.00
30081;BME280;16902;50.816;12.828;2023-06-10T18:59:59;97858.63;;;20.50;100.00
30081;BME280;16902;50.816;12.828;2023-06-10T19:05:01;97864.50;;;20.24;100.00
30081;BME280;16902;50.816;12.828;2023-06-10T19:10:03;97870.53;;;19.91;100.00
30081;BME280;16902;50.816;12.828;2023-06-10T19:15:05;97872.94;;;19.64;100.00
30081;BME280;16902;50.816;12.828;2023-06-10T19:20:08;97877.13;;;19.36;100.00
30081;BME280;16902;50.816;12.828;2023-06-10T19:25:10;97884.50;;;19.11;100.00
30081;BME280;16902;50.816;12.828;2023-06-10T19:30:13;97897.22;;;19.25;100.00
30081;BME280;16902;50.816;12.828;2023-06-10T19:35:14;97901.03;;;18.94;100.00
30081;BME280;16902;50.816;12.828;2023-06-10T19:40:16;97905.81;;;18.62;100.00
30081;BME280;16902;50.816;12.828;2023-06-10T19:45:18;97916.47;;;18.67;100.00
30081;BME280;16902;50.816;12.828;2023-06-10T19:50:20;97920.53;;;18.40;100.00
30081;BME280;16902;50.816;12.828;2023-06-10T19:55:21;97921.53;;;17.97;100.00
30081;BME280;16902;50.816;12.828;2023-06-10T20:00:23;97922.22;;;17.74;100.00
30081;BME280;16902;50.816;12.828;2023-06-10T20:05:25;97910.81;;;17.43;100.00
30081;BME280;16902;50.816;12.828;2023-06-10T20:10:27;97917.84;;;17.13;100.00
30081;BME280;16902;50.816;12.828;2023-06-10T20:15:28;97928.91;;;16.96;100.00
30081;BME280;16902;50.816;12.828;2023-06-10T20:20:30;97921.19;;;16.77;100.00
30081;BME280;16902;50.816;12.828;2023-06-10T20:25:32;97916.84;;;16.57;100.00
30081;BME280;16902;50.816;12.828;2023-06-10T20:30:35;97925.69;;;16.38;100.00
30081;BME280;16902;50.816;12.828;2023-06-10T20:35:39;97922.94;;;16.26;100.00
30081;BME280;16902;50.816;12.828;2023-06-10T20:40:40;97923.66;;;16.08;100.00
30081;BME280;16902;50.816;12.828;2023-06-10T20:45:45;97929.97;;;15.94;100.00
30081;BME280;16902;50.816;12.828;2023-06-10T20:50:47;97926.81;;;15.79;100.00
30081;BME280;16902;50.816;12.828;2023-06-10T20:55:49;97924.66;;;15.62;100.00
30081;BME280;16902;50.816;12.828;2023-06-10T21:00:50;97927.53;;;15.48;100.00
30081;BME280;16902;50.816;12.828;2023-06-10T21:05:52;97928.97;;;15.30;100.00
30081;BME280;16902;50.816;12.828;2023-06-10T21:10:54;97927.38;;;15.16;100.00
30081;BME280;16902;50.816;12.828;2023-06-10T21:15:56;97932.06;;;15.01;100.00
30081;BME280;16902;50.816;12.828;2023-06-10T21:20:57;97940.94;;;14.86;100.00
30081;BME280;16902;50.816;12.828;2023-06-10T21:25:59;97935.69;;;14.73;100.00
30081;BME280;16902;50.816;12.828;2023-06-10T21:31:02;97936.09;;;14.57;100.00
30081;BME280;16902;50.816;12.828;2023-06-10T21:36:05;97937.09;;;14.49;100.00
30081;BME280;16902;50.816;12.828;2023-06-10T21:41:07;97940.47;;;14.36;100.00
30081;BME280;16902;50.816;12.828;2023-06-10T21:46:09;97952.09;;;14.21;100.00
30081;BME280;16902;50.816;12.828;2023-06-10T21:51:11;97949.09;;;14.17;100.00
30081;BME280;16902;50.816;12.828;2023-06-10T21:56:12;97955.69;;;14.06;100.00
30081;BME280;16902;50.816;12.828;2023-06-10T22:01:14;97955.25;;;13.96;100.00
30081;BME280;16902;50.816;12.828;2023-06-10T22:06:16;97956.84;;;13.91;100.00
30081;BME280;16902;50.816;12.828;2023-06-10T22:11:18;97955.81;;;13.78;100.00
30081;BME280;16902;50.816;12.828;2023-06-10T22:16:19;97955.53;;;13.67;100.00
30081;BME280;16902;50.816;12.828;2023-06-10T22:21:21;97955.47;;;13.53;100.00
30081;BME280;16902;50.816;12.828;2023-06-10T22:26:24;97955.03;;;13.43;100.00
30081;BME280;16902;50.816;12.828;2023-06-10T22:31:45;97942.94;;;13.35;100.00
30081;BME280;16902;50.816;12.828;2023-06-10T22:36:47;97948.66;;;13.24;100.00
30081;BME280;16902;50.816;12.828;2023-06-10T22:41:48;97949.22;;;13.20;100.00
30081;BME280;16902;50.816;12.828;2023-06-10T22:46:50;97945.97;;;13.11;100.00
30081;BME280;16902;50.816;12.828;2023-06-10T22:51:52;97949.16;;;13.06;100.00
30081;BME280;16902;50.816;12.828;2023-06-10T22:56:53;97950.75;;;13.07;100.00
30081;BME280;16902;50.816;12.828;2023-06-10T23:01:55;97941.69;;;13.03;100.00
30081;BME280;16902;50.816;12.828;2023-06-10T23:06:57;97941.34;;;12.85;100.00
30081;BME280;16902;50.816;12.828;2023-06-10T23:11:58;97943.03;;;12.71;100.00
30081;BME280;16902;50.816;12.828;2023-06-10T23:17:00;97942.38;;;12.63;100.00
30081;BME280;16902;50.816;12.828;2023-06-10T23:22:02;97944.91;;;12.56;100.00
30081;BME280;16902;50.816;12.828;2023-06-10T23:27:05;97940.09;;;12.53;100.00
30081;BME280;16902;50.816;12.828;2023-06-10T23:32:07;97949.03;;;12.44;100.00
30081;BME280;16902;50.816;12.828;2023-06-10T23:37:09;97951.72;;;12.29;100.00
30081;BME280;16902;50.816;12.828;2023-06-10T23:42:12;97952.63;;;12.21;100.00
30081;BME280;16902;50.816;12.828;2023-06-10T23:47:13;97953.56;;;12.14;100.00
30081;BME280;16902;50.816;12.828;2023-06-10T23:52:15;97953.28;;;12.08;100.00
30081;BME280;16902;50.816;12.828;2023-06-10T23:57:17;97961.78;;;11.96;100.00
